Time;durP1;ratioP1;P1;durP2;ratioP2;P2;SDS_P1;SDS_P2;PMS_P1;PMS_P2;Temp;Humidity;BMP_temperature;BMP_pressure;BME280_temperature;BME280_humidity;BME280_pressure;Samples;Min_cycle;Max_cycle;Signal;HPM_P1;HPM_P2
2022/09/20 00:02:19;;;;;;;10.95;2.10;;;11.50;99.90;;;;;;5092521;28;20044;-64
2022/09/20 00:04:47;;;;;;;11.07;1.85;;;11.30;99.90;;;;;;5092276;28;20043;-64
2022/09/20 00:07:13;;;;;;;11.77;1.80;;;12.10;99.90;;;;;;5091827;28;20582;-66
2022/09/20 00:09:39;;;;;;;8.63;1.77;;;11.60;99.90;;;;;;5092161;28;20090;-65
2022/09/20 00:12:05;;;;;;;13.85;2.08;;;11.40;99.90;;;;;;5092292;28;20052;-65
2022/09/20 00:14:31;;;;;;;11.23;1.75;;;11.30;99.90;;;;;;5125274;27;20594;-64
2022/09/20 00:16:57;;;;;;;10.27;1.85;;;11.30;99.90;;;;;;5092285;28;20135;-64
2022/09/20 00:19:23;;;;;;;8.50;1.85;;;12.00;99.90;;;;;;5092349;28;20484;-64
2022/09/20 00:21:48;;;;;;;10.90;1.83;;;11.50;99.90;;;;;;5090787;28;20095;-65
2022/09/20 00:24:14;;;;;;;11.13;1.52;;;11.20;99.90;;;;;;5091031;28;20047;-64
2022/09/20 00:26:40;;;;;;;;;;;11.40;99.90;;;;;;5092582;28;20054;-66
2022/09/20 00:29:06;;;;;;;8.23;1.40;;;12.00;99.90;;;;;;5092045;28;19924;-64
2022/09/20 00:31:32;;;;;;;12.98;1.88;;;11.40;99.90;;;;;;5092148;28;20055;-64
2022/09/20 00:36:43;;;;;;;13.60;1.77;;;11.20;99.90;;;;;;5091871;28;20075;-64
2022/09/20 00:39:14;;;;;;;11.30;1.75;;;10.90;99.90;;;;;;5092057;28;20044;-64
2022/09/20 00:41:39;;;;;;;10.93;1.65;;;11.10;99.90;;;;;;5091842;28;20458;-64
2022/09/20 00:44:42;;;;;;;7.00;1.35;;;11.00;99.90;;;;;;5092025;28;20078;-64
2022/09/20 00:47:20;;;;;;;11.15;1.40;;;11.30;99.90;;;;;;5091988;28;20194;-65
2022/09/20 00:49:47;;;;;;;10.35;1.48;;;11.20;99.90;;;;;;5092747;28;20036;-64
2022/09/20 00:52:14;;;;;;;7.07;1.40;;;11.40;99.90;;;;;;5095810;28;20091;-67
2022/09/20 00:54:40;;;;;;;10.95;1.90;;;11.10;99.90;;;;;;5095716;28;20565;-65
2022/09/20 00:57:05;;;;;;;9.77;1.65;;;12.60;99.90;;;;;;5095709;28;20047;-64
2022/09/20 00:59:35;;;;;;;7.25;1.90;;;11.40;99.90;;;;;;5095951;28;20083;-64
2022/09/20 01:02:04;;;;;;;12.35;1.30;;;12.00;99.90;;;;;;5095868;28;20051;-64
2022/09/20 01:04:30;;;;;;;14.35;1.70;;;11.10;99.90;;;;;;5095892;28;20086;-64
2022/09/20 01:07:01;;;;;;;8.30;1.45;;;11.10;99.90;;;;;;5095666;28;20076;-64
2022/09/20 01:09:27;;;;;;;11.07;1.55;;;12.00;99.90;;;;;;5096022;28;20040;-64
2022/09/20 01:11:56;;;;;;;6.03;1.40;;;11.30;99.90;;;;;;5095455;28;20048;-64
2022/09/20 01:14:24;;;;;;;10.70;1.38;;;12.30;99.90;;;;;;5095429;28;20531;-65
2022/09/20 01:16:54;;;;;;;8.43;1.25;;;11.30;99.90;;;;;;5094634;28;20059;-65
2022/09/20 01:20:01;;;;;;;10.15;1.60;;;11.10;99.90;;;;;;5095570;28;20131;-65
2022/09/20 01:22:40;;;;;;;8.25;1.45;;;11.20;99.90;;;;;;5080136;28;20438;-64
2022/09/20 01:25:15;;;;;;;7.28;1.23;;;10.90;99.90;;;;;;5095498;28;20047;-65
2022/09/20 01:27:47;;;;;;;5.35;1.20;;;11.00;99.90;;;;;;5095277;28;20040;-64
2022/09/20 01:30:24;;;;;;;9.02;1.20;;;11.30;99.90;;;;;;5095063;28;20519;-64
2022/09/20 01:33:08;;;;;;;9.23;1.50;;;11.10;99.90;;;;;;5095352;28;20063;-66
2022/09/20 01:35:35;;;;;;;8.38;1.55;;;11.00;99.90;;;;;;5095049;28;20047;-64
2022/09/20 01:38:03;;;;;;;6.15;1.50;;;11.20;99.90;;;;;;5095242;28;20060;-65
2022/09/20 01:41:04;;;;;;;10.65;1.45;;;10.90;99.90;;;;;;5095193;28;20155;-64
2022/09/20 01:43:46;;;;;;;11.75;1.98;;;10.80;99.90;;;;;;5095070;28;20097;-64
2022/09/20 01:46:29;;;;;;;4.28;1.33;;;10.90;99.90;;;;;;5095145;28;20127;-65
2022/09/20 01:49:13;;;;;;;7.40;1.60;;;10.50;99.90;;;;;;5094719;28;20088;-65
2022/09/20 01:52:15;;;;;;;6.82;1.77;;;10.30;99.90;;;;;;5095276;28;20043;-64
2022/09/20 01:55:14;;;;;;;9.27;1.80;;;9.70;99.90;;;;;;5094952;28;20146;-64
2022/09/20 01:58:02;;;;;;;8.05;1.70;;;9.60;99.90;;;;;;5093658;28;20040;-64
2022/09/20 02:00:30;;;;;;;;;;;9.60;99.90;;;;;;5094772;28;20051;-65
2022/09/20 02:03:28;;;;;;;9.80;1.50;;;9.90;99.90;;;;;;5094973;28;19927;-64
2022/09/20 02:06:10;;;;;;;5.35;1.60;;;9.10;99.90;;;;;;5089830;28;20492;-64
2022/09/20 02:08:42;;;;;;;5.07;1.45;;;9.20;99.90;;;;;;5094600;28;20044;-64
2022/09/20 02:11:20;;;;;;;8.73;1.52;;;9.20;99.90;;;;;;5094657;28;20051;-64
2022/09/20 02:14:01;;;;;;;6.40;1.92;;;8.80;99.90;;;;;;5093342;28;20051;-65
2022/09/20 02:16:48;;;;;;;8.85;1.65;;;8.70;99.90;;;;;;5094554;28;20043;-64
2022/09/20 02:19:17;;;;;;;;;;;9.00;99.90;;;;;;5094644;28;20040;-65
2022/09/20 02:21:51;;;;;;;4.20;1.40;;;8.70;99.90;;;;;;5093392;28;19979;-64
2022/09/20 02:24:25;;;;;;;10.30;1.48;;;8.50;99.90;;;;;;5094286;28;20484;-64
2022/09/20 02:27:16;;;;;;;13.23;1.30;;;8.90;99.90;;;;;;5094334;28;20040;-64
2022/09/20 02:30:13;;;;;;;5.57;1.50;;;8.60;99.90;;;;;;5093774;28;20425;-64
2022/09/20 02:33:27;;;;;;;8.35;1.52;;;8.70;99.90;;;;;;5093972;28;20377;-66
2022/09/20 02:36:09;;;;;;;6.22;1.60;;;8.50;99.90;;;;;;5073798;28;20140;-64
2022/09/20 02:39:02;;;;;;;8.10;1.73;;;9.80;99.90;;;;;;5093802;28;20511;-65
2022/09/20 02:41:41;;;;;;;10.60;1.80;;;8.80;99.90;;;;;;5094013;28;20052;-64
2022/09/20 02:44:25;;;;;;;3.47;1.10;;;8.70;99.90;;;;;;5093957;28;20051;-64
2022/09/20 02:47:09;;;;;;;7.25;1.73;;;9.00;99.90;;;;;;5093714;28;20090;-64
2022/09/20 02:49:58;;;;;;;5.80;1.30;;;8.70;99.90;;;;;;5093831;28;20048;-65
2022/09/20 02:52:48;;;;;;;6.55;1.63;;;8.70;99.90;;;;;;5093526;28;20492;-64
2022/09/20 02:55:59;;;;;;;6.78;1.55;;;8.80;99.90;;;;;;5093773;28;20044;-64
2022/09/20 02:58:43;;;;;;;4.07;1.17;;;8.80;99.90;;;;;;5093811;28;20047;-64
2022/09/20 03:01:23;;;;;;;6.90;1.55;;;8.90;99.90;;;;;;5093610;28;20087;-64
2022/09/20 03:04:23;;;;;;;7.03;1.50;;;8.80;99.90;;;;;;5093669;28;20044;-64
2022/09/20 03:07:15;;;;;;;2.75;1.30;;;9.10;99.90;;;;;;5093608;28;20578;-64
2022/09/20 03:09:53;;;;;;;3.55;1.40;;;9.00;99.90;;;;;;5093481;28;20522;-65
2022/09/20 03:12:36;;;;;;;4.45;1.17;;;9.40;99.90;;;;;;5092604;28;20036;-64
2022/09/20 03:15:21;;;;;;;10.45;1.50;;;9.10;99.90;;;;;;5093393;28;20092;-64
2022/09/20 03:17:54;;;;;;;6.25;1.20;;;9.40;99.90;;;;;;5093137;28;20391;-64
2022/09/20 03:21:03;;;;;;;9.02;1.38;;;9.30;99.90;;;;;;5093296;28;20084;-65
2022/09/20 03:23:35;;;;;;;8.93;1.20;;;10.10;99.90;;;;;;5092673;28;20591;-64
2022/09/20 03:26:15;;;;;;;5.97;1.35;;;9.90;99.90;;;;;;5093126;28;20055;-65
2022/09/20 03:28:49;;;;;;;7.70;1.38;;;10.10;99.90;;;;;;5092990;28;20056;-64
2022/09/20 03:31:26;;;;;;;7.78;1.30;;;10.40;99.90;;;;;;5092837;28;20098;-64
2022/09/20 03:34:14;;;;;;;11.80;1.83;;;10.40;99.90;;;;;;5093065;28;20052;-67
2022/09/20 03:36:58;;;;;;;7.13;1.35;;;10.30;99.90;;;;;;5092911;28;20052;-66
2022/09/20 03:39:45;;;;;;;6.50;1.20;;;10.70;99.90;;;;;;5092902;28;20502;-64
2022/09/20 03:42:29;;;;;;;3.88;1.00;;;10.60;99.90;;;;;;5092929;28;20428;-67
2022/09/20 03:45:29;;;;;;;7.40;1.20;;;10.70;99.90;;;;;;5092619;28;20044;-64
2022/09/20 03:48:21;;;;;;;9.55;1.58;;;11.00;99.90;;;;;;5092444;28;20048;-64
2022/09/20 03:51:09;;;;;;;3.95;1.20;;;10.80;99.90;;;;;;5092791;28;20384;-64
2022/09/20 03:53:47;;;;;;;4.38;1.33;;;10.70;99.90;;;;;;5092716;28;20040;-64
2022/09/20 03:56:30;;;;;;;5.93;1.33;;;10.90;99.90;;;;;;5092588;28;20493;-64
2022/09/20 03:59:04;;;;;;;11.82;1.60;;;11.00;99.90;;;;;;5092626;28;20048;-65
2022/09/20 04:01:53;;;;;;;9.93;1.40;;;11.10;99.90;;;;;;5092643;28;20048;-64
2022/09/20 04:04:46;;;;;;;12.27;1.65;;;11.10;99.90;;;;;;5092398;28;20050;-64
2022/09/20 04:07:33;;;;;;;10.98;1.40;;;11.20;99.90;;;;;;5092522;28;20101;-65
2022/09/20 04:10:28;;;;;;;7.18;1.30;;;11.20;99.90;;;;;;5092315;28;20042;-64
2022/09/20 04:13:08;;;;;;;8.82;1.58;;;11.30;99.90;;;;;;5092441;28;20036;-64
2022/09/20 04:16:16;;;;;;;9.77;1.38;;;10.70;99.90;;;;;;5092139;28;20090;-64
2022/09/20 04:18:51;;;;;;;5.77;1.40;;;11.20;99.90;;;;;;5081615;28;20102;-65
2022/09/20 04:21:36;;;;;;;9.48;1.88;;;11.10;99.90;;;;;;5092383;28;20446;-64
2022/09/20 04:24:27;;;;;;;6.95;1.30;;;11.10;99.90;;;;;;5092203;28;20044;-64
2022/09/20 04:27:04;;;;;;;5.20;1.23;;;10.90;99.90;;;;;;5092279;28;20407;-64
2022/09/20 04:29:46;;;;;;;8.52;1.65;;;11.10;99.90;;;;;;5091348;28;20063;-64
2022/09/20 04:32:33;;;;;;;6.72;1.52;;;10.90;99.90;;;;;;5091208;28;20048;-65
2022/09/20 04:37:58;;;;;;;8.90;1.30;;;10.90;99.90;;;;;;5092139;28;20058;-66
2022/09/20 04:40:46;;;;;;;10.52;1.35;;;11.30;99.90;;;;;;5092061;28;20055;-64
2022/09/20 04:43:32;;;;;;;4.35;1.27;;;11.00;99.90;;;;;;5091850;28;20048;-66
2022/09/20 04:46:07;;;;;;;12.75;1.77;;;11.20;99.90;;;;;;5092105;28;20051;-64
2022/09/20 04:49:10;;;;;;;7.70;1.50;;;11.10;99.90;;;;;;5090730;28;20392;-65
2022/09/20 04:52:09;;;;;;;11.85;2.10;;;11.00;99.90;;;;;;5092163;28;20048;-64
2022/09/20 04:55:09;;;;;;;7.07;1.30;;;11.40;99.90;;;;;;5090942;28;20395;-64
2022/09/20 04:57:40;;;;;;;5.15;1.40;;;11.20;99.90;;;;;;5091760;28;20052;-64
2022/09/20 05:00:17;;;;;;;9.68;1.40;;;11.20;99.90;;;;;;5091924;28;20708;-64
2022/09/20 05:03:01;;;;;;;20.25;1.98;;;11.20;99.90;;;;;;5092026;28;20054;-64
2022/09/20 05:06:05;;;;;;;9.05;1.42;;;11.40;99.90;;;;;;5091890;28;20710;-64
2022/09/20 05:08:44;;;;;;;9.65;1.10;;;11.60;99.90;;;;;;5091783;28;20462;-64
2022/09/20 05:11:42;;;;;;;11.25;1.35;;;11.80;99.90;;;;;;5091888;28;20047;-64
2022/09/20 05:14:27;;;;;;;8.80;1.20;;;11.70;99.90;;;;;;5091767;28;20056;-65
2022/09/20 05:17:13;;;;;;;5.90;1.50;;;11.60;99.90;;;;;;5091794;28;20081;-66
2022/09/20 05:19:45;;;;;;;8.95;1.45;;;11.30;99.90;;;;;;5091765;28;20048;-64
2022/09/20 05:22:49;;;;;;;9.63;1.30;;;11.20;99.90;;;;;;5090497;28;20044;-64
2022/09/20 05:25:41;;;;;;;13.02;1.75;;;11.10;99.90;;;;;;5086204;28;20495;-65
2022/09/20 05:28:25;;;;;;;13.60;1.30;;;11.20;99.90;;;;;;5090834;28;20548;-67
2022/09/20 05:30:57;;;;;;;7.03;1.40;;;11.40;99.90;;;;;;5091705;28;20048;-64
2022/09/20 05:33:31;;;;;;;6.82;1.00;;;11.10;99.90;;;;;;5091671;28;20044;-64
2022/09/20 05:36:08;;;;;;;12.15;1.48;;;11.50;99.90;;;;;;5092579;28;20047;-64
2022/09/20 05:38:55;;;;;;;7.07;1.33;;;11.30;99.90;;;;;;5095229;28;20456;-68
2022/09/20 05:41:44;;;;;;;4.35;1.00;;;11.40;99.90;;;;;;5094975;28;20052;-65
2022/09/20 05:44:26;;;;;;;10.65;1.45;;;11.20;99.90;;;;;;5095440;28;20404;-64
2022/09/20 05:46:52;;;;;;;5.53;1.33;;;11.60;99.90;;;;;;5095173;28;20380;-67
2022/09/20 05:49:21;;;;;;;2.45;1.00;;;12.70;99.90;;;;;;5094963;28;20047;-64
2022/09/20 05:52:05;;;;;;;6.60;1.00;;;11.60;99.90;;;;;;5093990;28;20384;-64
2022/09/20 05:55:08;;;;;;;7.60;1.20;;;12.00;99.90;;;;;;5095003;28;20056;-65
2022/09/20 05:58:20;;;;;;;7.60;1.65;;;11.90;99.90;;;;;;5094898;28;20124;-64
2022/09/20 06:01:02;;;;;;;6.22;1.23;;;11.70;99.90;;;;;;5094800;28;20441;-65
2022/09/20 06:03:41;;;;;;;4.35;1.05;;;11.70;99.90;;;;;;5094810;28;20105;-66
2022/09/20 06:06:38;;;;;;;7.07;1.40;;;12.00;99.90;;;;;;5094792;28;20051;-65
2022/09/20 06:09:28;;;;;;;4.18;1.10;;;11.90;99.90;;;;;;5094663;28;20040;-64
2022/09/20 06:12:30;;;;;;;4.75;1.25;;;11.90;99.90;;;;;;5090491;28;20116;-65
2022/09/20 06:15:20;;;;;;;12.27;1.75;;;11.80;99.90;;;;;;5093877;28;20105;-69
2022/09/20 06:17:57;;;;;;;5.60;1.20;;;11.70;99.90;;;;;;5093941;28;20089;-64
2022/09/20 06:20:34;;;;;;;;;;;11.60;99.90;;;;;;5093911;28;20052;-67
2022/09/20 06:23:03;;;;;;;6.53;0.98;;;12.00;99.90;;;;;;5093860;28;19923;-65
2022/09/20 06:25:54;;;;;;;5.13;1.20;;;11.90;99.90;;;;;;5093112;28;20056;-71
2022/09/20 06:28:28;;;;;;;3.95;1.42;;;12.60;99.90;;;;;;5093528;28;20059;-64
2022/09/20 06:30:56;;;;;;;6.85;1.42;;;12.20;99.90;;;;;;5092323;28;20091;-64
2022/09/20 06:33:24;;;;;;;6.13;1.05;;;11.70;99.90;;;;;;5088576;28;20453;-63
2022/09/20 06:35:56;;;;;;;7.75;1.35;;;12.30;99.90;;;;;;5092882;28;20047;-63
2022/09/20 06:41:29;;;;;;;4.22;1.42;;;12.80;99.90;;;;;;5093901;28;20097;-64
2022/09/20 06:43:59;;;;;;;8.77;1.42;;;12.20;99.90;;;;;;5093588;28;20047;-63
2022/09/20 06:46:30;;;;;;;5.72;1.65;;;12.60;99.90;;;;;;5093005;28;20429;-64
2022/09/20 06:48:56;;;;;;;6.28;1.17;;;12.40;99.90;;;;;;5093256;28;20685;-62
2022/09/20 06:51:24;;;;;;;4.18;1.00;;;13.40;99.90;;;;;;5093440;28;20530;-63
2022/09/20 06:53:50;;;;;;;7.60;1.40;;;12.30;99.90;;;;;;5091663;28;20060;-63
2022/09/20 06:56:22;;;;;;;8.60;1.33;;;12.50;99.90;;;;;;5093482;28;20141;-61
2022/09/20 06:58:48;;;;;;;6.20;1.00;;;12.70;99.90;;;;;;5092378;28;20052;-64
2022/09/20 07:01:14;;;;;;;9.55;1.20;;;13.50;99.90;;;;;;5092989;28;20059;-63
2022/09/20 07:03:41;;;;;;;5.28;1.42;;;13.00;99.90;;;;;;5093285;28;20051;-63
2022/09/20 07:06:07;;;;;;;11.18;1.20;;;13.30;99.90;;;;;;5093340;28;20052;-62
2022/09/20 07:08:33;;;;;;;6.38;1.40;;;13.20;99.90;;;;;;5092905;28;20759;-63
2022/09/20 07:11:11;;;;;;;6.55;1.30;;;14.30;99.90;;;;;;5093176;28;20131;-64
2022/09/20 07:13:37;;;;;;;13.82;1.80;;;13.30;99.90;;;;;;5092619;28;20535;-65
2022/09/20 07:16:05;;;;;;;12.00;1.40;;;13.60;99.90;;;;;;5091540;28;20220;-62
2022/09/20 07:18:32;;;;;;;12.50;2.08;;;13.20;99.90;;;;;;5093056;28;20044;-64
2022/09/20 07:21:01;;;;;;;5.50;1.50;;;13.40;99.90;;;;;;5093041;28;20154;-64
2022/09/20 07:23:28;;;;;;;7.30;1.45;;;13.50;99.90;;;;;;5091237;28;20400;-61
2022/09/20 07:25:59;;;;;;;6.25;1.30;;;13.80;99.90;;;;;;5091881;28;20117;-63
2022/09/20 07:28:29;;;;;;;6.00;1.55;;;14.00;99.90;;;;;;5092783;28;20139;-63
2022/09/20 07:30:55;;;;;;;8.55;1.60;;;14.30;99.90;;;;;;5090731;28;20126;-61
2022/09/20 07:33:22;;;;;;;10.23;2.05;;;14.60;99.90;;;;;;5092342;28;20555;-66
2022/09/20 07:35:48;;;;;;;9.18;2.55;;;14.00;99.90;;;;;;5092250;28;20056;-66
2022/09/20 07:38:14;;;;;;;5.57;1.48;;;14.40;99.90;;;;;;5091863;28;20506;-63
2022/09/20 07:40:40;;;;;;;5.03;1.25;;;14.30;99.90;;;;;;5092156;28;20196;-61
2022/09/20 07:43:06;;;;;;;;;;;14.20;99.90;;;;;;5092219;28;20036;-63
2022/09/20 07:45:34;;;;;;;6.85;1.48;;;14.30;99.90;;;;;;5091740;28;19923;-64
2022/09/20 07:48:04;;;;;;;7.57;1.42;;;14.00;99.90;;;;;;5109380;28;20118;-65
2022/09/20 07:50:31;;;;;;;7.88;1.42;;;14.00;99.90;;;;;;5110969;28;20054;-63
2022/09/20 07:52:57;;;;;;;7.20;1.35;;;13.80;99.90;;;;;;5112186;28;20058;-62
2022/09/20 07:55:23;;;;;;;9.60;1.55;;;13.70;99.90;;;;;;5112338;28;20242;-65
2022/09/20 07:57:49;;;;;;;;;;;14.00;99.90;;;;;;5112720;28;20048;-64
2022/09/20 08:00:16;;;;;;;3.67;1.05;;;14.00;99.90;;;;;;5111310;28;19919;-64
2022/09/20 08:02:41;;;;;;;;;;;13.90;99.90;;;;;;5112135;28;20065;-62
2022/09/20 08:05:07;;;;;;;8.13;1.40;;;14.20;99.90;;;;;;5112032;28;20374;-62
2022/09/20 08:07:33;;;;;;;12.73;1.58;;;14.00;99.90;;;;;;5099493;28;20123;-63
2022/09/20 08:09:59;;;;;;;5.38;1.20;;;14.40;99.90;;;;;;5091914;28;20519;-63
2022/09/20 08:12:25;;;;;;;6.40;1.60;;;14.80;99.90;;;;;;5091935;28;20142;-63
2022/09/20 08:14:51;;;;;;;9.40;1.80;;;14.90;99.90;;;;;;5091371;28;20044;-64
2022/09/20 08:17:18;;;;;;;9.75;1.80;;;14.90;99.90;;;;;;5091729;28;20036;-63
2022/09/20 08:19:44;;;;;;;5.80;1.38;;;15.10;99.90;;;;;;5091664;28;20070;-66
2022/09/20 08:22:11;;;;;;;;;;;15.20;99.90;;;;;;5091523;28;20419;-64
2022/09/20 08:24:38;;;;;;;8.13;1.30;;;14.20;99.90;;;;;;5091388;28;20441;-63
2022/09/20 08:27:04;;;;;;;6.55;1.40;;;14.90;99.90;;;;;;5091799;28;20056;-63
2022/09/20 08:29:29;;;;;;;6.10;1.10;;;14.40;99.90;;;;;;5091037;28;20052;-67
2022/09/20 08:31:57;;;;;;;5.57;1.40;;;14.40;99.90;;;;;;5091791;28;20442;-64
2022/09/20 08:34:23;;;;;;;8.27;1.77;;;14.30;99.90;;;;;;5091798;28;20044;-64
2022/09/20 08:36:50;;;;;;;4.05;0.98;;;14.70;99.90;;;;;;5089580;28;20043;-63
2022/09/20 08:39:17;;;;;;;11.98;1.80;;;14.60;99.90;;;;;;5091608;28;20048;-64
2022/09/20 08:41:57;;;;;;;3.58;1.00;;;14.40;99.90;;;;;;5091498;28;20040;-67
2022/09/20 08:44:40;;;;;;;8.00;1.30;;;14.50;99.90;;;;;;5091162;28;20052;-64
2022/09/20 08:47:06;;;;;;;5.75;1.77;;;14.30;99.90;;;;;;5091559;28;20039;-63
2022/09/20 08:49:32;;;;;;;7.30;1.52;;;14.50;99.90;;;;;;5091264;28;20089;-63
2022/09/20 08:52:00;;;;;;;;;;;14.40;99.90;;;;;;5091435;28;20402;-63
2022/09/20 08:54:28;;;;;;;6.70;1.10;;;14.50;99.90;;;;;;5091439;28;20664;-63
2022/09/20 08:56:54;;;;;;;6.30;1.73;;;14.10;99.90;;;;;;5091422;28;20040;-63
2022/09/20 08:59:21;;;;;;;3.33;1.10;;;14.10;99.90;;;;;;5090956;28;20043;-63
2022/09/20 09:01:49;;;;;;;8.32;1.52;;;14.70;99.90;;;;;;5091417;28;20048;-63
2022/09/20 09:04:20;;;;;;;7.07;1.40;;;14.30;99.90;;;;;;5091115;28;20661;-63
2022/09/20 09:06:47;;;;;;;6.22;1.30;;;14.70;99.90;;;;;;5089636;28;20113;-63
2022/09/20 09:09:19;;;;;;;4.10;1.38;;;15.00;99.90;;;;;;5091253;28;20040;-64
2022/09/20 09:11:47;;;;;;;5.43;1.30;;;15.20;99.90;;;;;;5093712;28;20562;-65
2022/09/20 09:14:50;;;;;;;5.55;1.20;;;15.80;99.90;;;;;;5094438;28;20048;-63
2022/09/20 09:17:22;;;;;;;7.50;1.23;;;15.90;99.90;;;;;;5094382;28;20487;-63
2022/09/20 09:19:51;;;;;;;3.90;0.95;;;15.80;99.90;;;;;;5093847;28;20051;-66
2022/09/20 09:22:21;;;;;;;2.63;0.90;;;15.20;99.90;;;;;;5077330;28;20126;-63
2022/09/20 09:25:05;;;;;;;5.57;1.45;;;15.20;99.90;;;;;;5095509;28;20040;-63
2022/09/20 09:27:31;;;;;;;5.65;0.90;;;14.90;99.90;;;;;;5095513;28;20073;-63
2022/09/20 09:29:56;;;;;;;4.53;1.13;;;15.00;99.90;;;;;;5095280;28;20051;-63
2022/09/20 09:32:31;;;;;;;;;;;15.30;99.90;;;;;;5095802;28;20071;-63
2022/09/20 09:35:22;;;;;;;4.72;1.30;;;14.90;99.90;;;;;;5095139;28;19920;-63
2022/09/20 09:37:54;;;;;;;5.78;1.10;;;14.60;99.90;;;;;;5095308;28;20117;-65
2022/09/20 09:40:20;;;;;;;4.63;1.00;;;14.90;99.90;;;;;;5094950;28;20484;-66
2022/09/20 09:42:50;;;;;;;;;;;14.90;99.90;;;;;;5095625;28;20087;-63
2022/09/20 09:45:29;;;;;;;4.50;1.45;;;15.40;99.90;;;;;;5095131;28;19931;-64
2022/09/20 09:47:56;;;;;;;3.60;1.08;;;15.50;99.90;;;;;;5092979;28;20052;-63
2022/09/20 09:50:32;;;;;;;5.28;1.42;;;15.30;99.90;;;;;;5094398;28;20043;-64
2022/09/20 09:53:21;;;;;;;5.97;1.23;;;15.90;99.90;;;;;;5093836;28;20123;-63
2022/09/20 09:56:06;;;;;;;7.93;1.35;;;16.00;99.90;;;;;;5093890;28;20099;-63
2022/09/20 09:58:44;;;;;;;5.72;1.23;;;15.90;99.90;;;;;;5094062;28;20476;-63
2022/09/20 10:01:25;;;;;;;7.63;1.35;;;15.80;99.90;;;;;;5094381;28;20052;-72
2022/09/20 10:04:16;;;;;;;6.00;1.50;;;16.30;99.90;;;;;;5093430;28;20052;-63
2022/09/20 10:06:53;;;;;;;6.88;1.10;;;15.80;99.90;;;;;;5094161;28;20123;-61
2022/09/20 10:09:28;;;;;;;;;;;15.90;99.90;;;;;;5094286;28;20388;-63
2022/09/20 10:11:57;;;;;;;9.23;1.60;;;16.30;99.90;;;;;;5093479;28;19986;-63
2022/09/20 10:14:43;;;;;;;4.50;1.20;;;16.30;99.90;;;;;;5098973;28;20076;-62
2022/09/20 10:17:18;;;;;;;10.25;1.20;;;16.20;99.90;;;;;;5108693;28;20120;-63
2022/09/20 10:20:05;;;;;;;7.95;1.33;;;15.80;99.90;;;;;;5092559;28;20079;-63
2022/09/20 10:22:37;;;;;;;9.45;1.73;;;15.60;99.90;;;;;;5093118;28;20075;-67
2022/09/20 10:25:38;;;;;;;6.32;1.38;;;15.90;99.90;;;;;;5092388;28;20050;-63
2022/09/20 10:28:28;;;;;;;5.63;1.20;;;15.80;99.90;;;;;;5093633;28;20059;-63
2022/09/20 10:31:27;;;;;;;4.63;1.30;;;16.00;99.90;;;;;;5094049;28;20056;-63
2022/09/20 10:34:12;;;;;;;3.58;1.27;;;16.40;99.90;;;;;;5093029;28;20051;-64
2022/09/20 10:36:54;;;;;;;5.22;1.30;;;16.20;99.90;;;;;;5093133;28;20117;-63
2022/09/20 10:39:33;;;;;;;8.02;1.10;;;16.50;99.90;;;;;;5092910;28;20094;-63
2022/09/20 10:45:26;;;;;;;5.35;1.20;;;16.80;99.90;;;;;;5090932;28;20059;-63
2022/09/20 10:48:08;;;;;;;6.63;1.00;;;16.70;99.90;;;;;;5092973;28;20055;-63
2022/09/20 10:50:47;;;;;;;4.50;1.20;;;16.50;99.90;;;;;;5093131;28;20544;-62
2022/09/20 10:53:28;;;;;;;4.55;0.90;;;16.70;99.90;;;;;;5093065;28;20282;-66
2022/09/20 10:56:14;;;;;;;4.82;1.23;;;16.60;99.90;;;;;;5093165;28;20407;-66
2022/09/20 10:59:15;;;;;;;4.93;1.08;;;16.80;99.90;;;;;;5093691;28;20036;-66
2022/09/20 11:02:01;;;;;;;7.57;1.00;;;16.50;99.90;;;;;;5093196;28;20142;-62
2022/09/20 11:05:00;;;;;;;2.13;0.88;;;16.70;99.90;;;;;;5061267;28;20056;-64
2022/09/20 11:08:05;;;;;;;4.55;1.08;;;16.90;99.90;;;;;;5073364;28;20048;-63
2022/09/20 11:10:46;;;;;;;4.70;1.65;;;17.10;99.90;;;;;;5072250;28;20093;-63
2022/09/20 11:13:19;;;;;;;4.88;1.35;;;17.10;99.90;;;;;;5072560;28;20071;-64
2022/09/20 11:15:59;;;;;;;9.13;1.20;;;16.70;99.90;;;;;;5072209;28;20056;-64
2022/09/20 11:18:40;;;;;;;6.40;1.23;;;16.60;99.90;;;;;;5072321;28;20055;-67
2022/09/20 11:21:18;;;;;;;2.33;1.02;;;16.90;99.90;;;;;;5072296;28;20059;-64
2022/09/20 11:24:15;;;;;;;2.78;0.90;;;17.00;99.90;;;;;;5072129;28;20094;-63
2022/09/20 11:26:48;;;;;;;5.88;1.10;;;17.10;99.90;;;;;;5071951;28;20542;-63
2022/09/20 11:29:32;;;;;;;5.65;1.13;;;17.40;99.90;;;;;;5071543;28;20067;-65
2022/09/20 11:32:14;;;;;;;6.18;0.98;;;17.60;99.90;;;;;;5070536;28;20048;-64
2022/09/20 11:35:18;;;;;;;4.50;1.40;;;18.10;99.90;;;;;;5071228;28;20056;-63
2022/09/20 11:37:54;;;;;;;3.60;1.02;;;17.80;99.90;;;;;;5071306;28;20049;-63
2022/09/20 11:40:27;;;;;;;2.88;0.90;;;17.80;99.90;;;;;;5071908;28;20048;-65
2022/09/20 11:42:56;;;;;;;3.95;1.08;;;17.30;99.90;;;;;;5071920;28;20048;-63
2022/09/20 11:45:22;;;;;;;5.28;1.00;;;17.60;99.90;;;;;;5071549;28;20052;-69
2022/09/20 11:48:01;;;;;;;5.82;1.25;;;17.30;99.90;;;;;;5072169;28;20127;-63
2022/09/20 11:51:04;;;;;;;5.85;1.00;;;17.10;99.90;;;;;;5070510;28;20056;-65
2022/09/20 11:54:04;;;;;;;3.83;1.08;;;17.10;99.90;;;;;;5071590;28;20048;-62
2022/09/20 11:56:32;;;;;;;1.73;0.60;;;17.00;99.90;;;;;;5071550;28;20074;-62
2022/09/20 11:59:01;;;;;;;2.50;0.65;;;17.00;99.90;;;;;;5070728;28;20511;-63
2022/09/20 12:01:31;;;;;;;4.85;1.00;;;17.80;99.90;;;;;;5071603;28;20090;-66
2022/09/20 12:04:22;;;;;;;3.92;0.80;;;17.60;99.90;;;;;;5071483;28;20051;-69
2022/09/20 12:07:04;;;;;;;4.63;0.80;;;17.40;99.90;;;;;;5068318;28;20460;-66
2022/09/20 12:09:40;;;;;;;5.38;1.20;;;17.20;99.90;;;;;;5071347;28;20036;-66
2022/09/20 12:12:36;;;;;;;4.70;0.80;;;17.20;99.90;;;;;;5071104;28;20052;-63
2022/09/20 12:15:06;;;;;;;2.70;0.80;;;17.10;99.90;;;;;;5070199;28;20151;-63
2022/09/20 12:17:44;;;;;;;6.22;1.20;;;17.30;99.90;;;;;;5071416;28;20048;-64
2022/09/20 12:20:33;;;;;;;4.95;0.90;;;17.00;99.90;;;;;;5071294;28;20041;-66
2022/09/20 12:23:36;;;;;;;2.83;0.75;;;17.00;99.90;;;;;;5071290;28;20103;-63
2022/09/20 12:26:12;;;;;;;6.20;1.08;;;17.10;99.90;;;;;;5071248;28;20052;-65
2022/09/20 12:28:49;;;;;;;4.20;0.80;;;17.10;99.90;;;;;;5070724;28;20056;-64
2022/09/20 12:31:20;;;;;;;5.97;1.60;;;17.40;99.90;;;;;;5071282;28;20081;-66
2022/09/20 12:34:03;;;;;;;6.28;1.13;;;17.50;99.90;;;;;;5070870;28;20044;-66
2022/09/20 12:36:35;;;;;;;5.50;1.23;;;17.30;99.90;;;;;;5083779;28;20137;-63
2022/09/20 12:39:09;;;;;;;5.05;1.15;;;17.00;99.90;;;;;;5084122;28;20113;-63
2022/09/20 12:42:06;;;;;;;8.20;1.60;;;17.00;99.90;;;;;;5088406;28;20127;-63
2022/09/20 12:44:50;;;;;;;5.15;1.20;;;16.60;99.90;;;;;;5091941;28;20143;-63
2022/09/20 12:47:25;;;;;;;6.95;1.60;;;16.70;99.90;;;;;;5095577;28;20052;-63
2022/09/20 12:52:55;;;;;;;8.52;1.33;;;17.00;99.90;;;;;;5074989;28;20055;-63
2022/09/20 12:55:45;;;;;;;5.90;1.20;;;17.10;99.90;;;;;;5073793;28;20048;-63
2022/09/20 12:58:14;;;;;;;6.28;1.38;;;17.50;99.90;;;;;;5075096;28;20040;-62
2022/09/20 13:00:57;;;;;;;6.35;1.30;;;17.50;99.90;;;;;;5074893;28;20052;-63
2022/09/20 13:03:27;;;;;;;5.50;1.25;;;17.00;99.90;;;;;;5075110;28;20060;-63
2022/09/20 13:06:09;;;;;;;7.60;1.25;;;17.60;99.90;;;;;;5074740;28;20139;-70
2022/09/20 13:08:38;;;;;;;5.13;1.13;;;17.70;99.90;;;;;;5074533;28;20045;-64
2022/09/20 13:11:18;;;;;;;7.82;1.45;;;17.20;99.90;;;;;;5074594;28;20052;-64
2022/09/20 13:14:08;;;;;;;5.95;1.00;;;17.60;99.90;;;;;;5074880;28;20175;-64
2022/09/20 13:16:55;;;;;;;3.70;1.23;;;17.70;99.90;;;;;;5074984;28;20091;-66
2022/09/20 13:19:29;;;;;;;6.15;1.00;;;17.70;99.90;;;;;;5074491;28;20056;-65
2022/09/20 13:22:19;;;;;;;3.08;0.90;;;17.60;99.90;;;;;;5079068;28;20479;-65
2022/09/20 13:24:47;;;;;;;2.97;0.90;;;17.90;99.90;;;;;;5093664;28;20083;-65
2022/09/20 13:27:29;;;;;;;5.88;1.33;;;18.00;99.90;;;;;;5095015;28;20056;-67
2022/09/20 13:30:14;;;;;;;4.30;1.10;;;18.10;99.90;;;;;;5093181;28;20060;-65
2022/09/20 13:32:41;;;;;;;4.25;1.15;;;17.40;99.90;;;;;;5094743;28;20052;-69
2022/09/20 13:35:09;;;;;;;4.38;0.90;;;17.10;99.90;;;;;;5094704;28;20128;-62
2022/09/20 13:37:41;;;;;;;9.15;1.50;;;16.90;99.90;;;;;;5094537;28;20449;-66
2022/09/20 13:40:54;;;;;;;6.40;1.35;;;16.70;99.90;;;;;;5094195;28;20036;-64
2022/09/20 13:43:30;;;;;;;4.65;0.90;;;17.00;99.90;;;;;;5052168;28;20619;-64
2022/09/20 13:45:59;;;;;;;8.10;1.20;;;17.20;99.90;;;;;;5052295;28;20124;-64
2022/09/20 13:48:29;;;;;;;5.03;1.25;;;17.00;99.90;;;;;;5075529;28;20380;-64
2022/09/20 13:50:56;;;;;;;7.47;1.20;;;17.50;99.90;;;;;;5095026;28;20055;-64
2022/09/20 13:53:24;;;;;;;7.18;1.30;;;14.50;99.90;;;;;;5095039;28;20058;-64
2022/09/20 13:55:50;;;;;;;6.07;1.13;;;16.30;99.90;;;;;;5094540;28;20056;-65
2022/09/20 13:58:32;;;;;;;4.75;1.48;;;16.30;99.90;;;;;;5094267;28;20052;-67
2022/09/20 14:01:08;;;;;;;5.95;1.10;;;16.40;99.90;;;;;;5094972;28;20036;-63
2022/09/20 14:03:35;;;;;;;5.43;1.30;;;16.20;99.90;;;;;;5095164;28;20062;-65